sensor_id;sensor_type;location;lat;lon;timestamp;pressure;altitude;pressure_sealevel;temperature;humidity
11349;BME280;5729;43.570;27.826;2023-04-22T00:01:45;98832.41;;;10.70;100.00
11349;BME280;5729;43.570;27.826;2023-04-22T00:04:10;98828.00;;;10.62;100.00
11349;BME280;5729;43.570;27.826;2023-04-22T00:06:36;98844.03;;;10.51;100.00
11349;BME280;5729;43.570;27.826;2023-04-22T00:09:02;98836.34;;;10.53;100.00
11349;BME280;5729;43.570;27.826;2023-04-22T00:11:27;98846.25;;;10.45;100.00
11349;BME280;5729;43.570;27.826;2023-04-22T00:13:53;98844.59;;;10.37;100.00
11349;BME280;5729;43.570;27.826;2023-04-22T00:16:18;98835.00;;;10.40;100.00
11349;BME280;5729;43.570;27.826;2023-04-22T00:18:44;98834.59;;;10.38;100.00
11349;BME280;5729;43.570;27.826;2023-04-22T00:21:12;98838.66;;;10.28;100.00
11349;BME280;5729;43.570;27.826;2023-04-22T00:23:37;98837.03;;;10.24;100.00
11349;BME280;5729;43.570;27.826;2023-04-22T00:26:03;98829.38;;;10.26;100.00
11349;BME280;5729;43.570;27.826;2023-04-22T00:28:28;98837.81;;;10.24;100.00
11349;BME280;5729;43.570;27.826;2023-04-22T00:30:54;98830.03;;;10.19;100.00
11349;BME280;5729;43.570;27.826;2023-04-22T00:33:19;98834.63;;;10.18;100.00
11349;BME280;5729;43.570;27.826;2023-04-22T00:35:45;98827.84;;;10.05;100.00
11349;BME280;5729;43.570;27.826;2023-04-22T00:38:11;98827.47;;;10.07;100.00
11349;BME280;5729;43.570;27.826;2023-04-22T00:40:36;98832.44;;;10.05;100.00
11349;BME280;5729;43.570;27.826;2023-04-22T00:43:02;98823.13;;;9.99;100.00
11349;BME280;5729;43.570;27.826;2023-04-22T00:45:29;98830.69;;;9.93;100.00
11349;BME280;5729;43.570;27.826;2023-04-22T00:47:55;98822.59;;;9.90;100.00
11349;BME280;5729;43.570;27.826;2023-04-22T00:50:20;98826.22;;;9.78;100.00
11349;BME280;5729;43.570;27.826;2023-04-22T00:52:46;98824.31;;;9.78;100.00
11349;BME280;5729;43.570;27.826;2023-04-22T00:55:11;98813.88;;;9.77;100.00
11349;BME280;5729;43.570;27.826;2023-04-22T00:57:38;98822.75;;;9.77;100.00
11349;BME280;5729;43.570;27.826;2023-04-22T01:00:05;98822.38;;;9.79;100.00
11349;BME280;5729;43.570;27.826;2023-04-22T01:02:31;98814.94;;;9.72;100.00
11349;BME280;5729;43.570;27.826;2023-04-22T01:04:57;98826.50;;;9.73;100.00
11349;BME280;5729;43.570;27.826;2023-04-22T01:07:23;98821.84;;;9.70;100.00
11349;BME280;5729;43.570;27.826;2023-04-22T01:09:48;98818.00;;;9.71;100.00
11349;BME280;5729;43.570;27.826;2023-04-22T01:12:14;98820.97;;;9.66;100.00
11349;BME280;5729;43.570;27.826;2023-04-22T01:14:40;98822.38;;;9.60;100.00
11349;BME280;5729;43.570;27.826;2023-04-22T01:17:05;98823.31;;;9.48;100.00
11349;BME280;5729;43.570;27.826;2023-04-22T01:19:34;98824.53;;;9.51;100.00
11349;BME280;5729;43.570;27.826;2023-04-22T01:22:00;98822.91;;;9.46;100.00
11349;BME280;5729;43.570;27.826;2023-04-22T01:24:26;98835.94;;;9.44;100.00
11349;BME280;5729;43.570;27.826;2023-04-22T01:26:52;98838.28;;;9.45;100.00
11349;BME280;5729;43.570;27.826;2023-04-22T01:29:18;98835.16;;;9.43;100.00
11349;BME280;5729;43.570;27.826;2023-04-22T01:31:44;98839.41;;;9.44;100.00
11349;BME280;5729;43.570;27.826;2023-04-22T01:34:10;98834.81;;;9.45;100.00
11349;BME280;5729;43.570;27.826;2023-04-22T01:36:36;98834.72;;;9.41;100.00
11349;BME280;5729;43.570;27.826;2023-04-22T01:39:01;98837.06;;;9.43;100.00
11349;BME280;5729;43.570;27.826;2023-04-22T01:41:27;98834.31;;;9.39;100.00
11349;BME280;5729;43.570;27.826;2023-04-22T01:43:53;98835.94;;;9.44;100.00
11349;BME280;5729;43.570;27.826;2023-04-22T01:46:18;98835.16;;;9.43;100.00
11349;BME280;5729;43.570;27.826;2023-04-22T01:48:44;98833.25;;;9.44;100.00
11349;BME280;5729;43.570;27.826;2023-04-22T01:51:18;98831.69;;;9.43;100.00
11349;BME280;5729;43.570;27.826;2023-04-22T01:53:47;98830.13;;;9.42;100.00
11349;BME280;5729;43.570;27.826;2023-04-22T01:56:13;98834.31;;;9.39;100.00
11349;BME280;5729;43.570;27.826;2023-04-22T01:58:39;98821.56;;;9.17;100.00
11349;BME280;5729;43.570;27.826;2023-04-22T02:01:05;98824.09;;;9.29;100.00
11349;BME280;5729;43.570;27.826;2023-04-22T02:03:31;98820.72;;;9.32;100.00
11349;BME280;5729;43.570;27.826;2023-04-22T02:05:56;98815.25;;;9.29;100.00
11349;BME280;5729;43.570;27.826;2023-04-22T02:08:22;98816.69;;;9.23;100.00
11349;BME280;5729;43.570;27.826;2023-04-22T02:10:47;98815.91;;;9.22;100.00
11349;BME280;5729;43.570;27.826;2023-04-22T02:13:13;98811.94;;;9.16;100.00
11349;BME280;5729;43.570;27.826;2023-04-22T02:15:38;98805.28;;;9.10;100.00
11349;BME280;5729;43.570;27.826;2023-04-22T02:18:05;98822.19;;;9.10;100.00
11349;BME280;5729;43.570;27.826;2023-04-22T02:20:31;98820.34;;;9.15;100.00
11349;BME280;5729;43.570;27.826;2023-04-22T02:22:56;98820.97;;;9.08;100.00
11349;BME280;5729;43.570;27.826;2023-04-22T02:25:22;98826.34;;;9.08;100.00
11349;BME280;5729;43.570;27.826;2023-04-22T02:27:47;98833.84;;;8.99;100.00
11349;BME280;5729;43.570;27.826;2023-04-22T02:30:13;98828.69;;;8.90;100.00
11349;BME280;5729;43.570;27.826;2023-04-22T02:32:38;98841.50;;;8.81;100.00
11349;BME280;5729;43.570;27.826;2023-04-22T02:35:05;98826.22;;;8.66;100.00
11349;BME280;5729;43.570;27.826;2023-04-22T02:37:30;98839.44;;;8.74;100.00
11349;BME280;5729;43.570;27.826;2023-04-22T02:39:56;98834.50;;;8.77;100.00
11349;BME280;5729;43.570;27.826;2023-04-22T02:42:21;98820.84;;;8.50;100.00
11349;BME280;5729;43.570;27.826;2023-04-22T02:44:47;98831.78;;;8.57;100.00
11349;BME280;5729;43.570;27.826;2023-04-22T02:47:12;98822.56;;;8.58;100.00
11349;BME280;5729;43.570;27.826;2023-04-22T02:49:38;98823.09;;;8.48;100.00
11349;BME280;5729;43.570;27.826;2023-04-22T02:52:03;98821.28;;;8.52;100.00
11349;BME280;5729;43.570;27.826;2023-04-22T02:54:29;98826.41;;;8.57;100.00
11349;BME280;5729;43.570;27.826;2023-04-22T02:56:55;98823.53;;;8.66;100.00
11349;BME280;5729;43.570;27.826;2023-04-22T02:59:22;98821.69;;;8.70;100.00
11349;BME280;5729;43.570;27.826;2023-04-22T03:01:47;98833.72;;;8.76;100.00
11349;BME280;5729;43.570;27.826;2023-04-22T03:04:13;98826.09;;;8.78;100.00
11349;BME280;5729;43.570;27.826;2023-04-22T03:06:39;98826.88;;;8.79;100.00
11349;BME280;5729;43.570;27.826;2023-04-22T03:09:05;98830.94;;;8.72;100.00
11349;BME280;5729;43.570;27.826;2023-04-22T03:11:30;98838.91;;;8.85;100.00
11349;BME280;5729;43.570;27.826;2023-04-22T03:13:56;98832.16;;;8.91;100.00
11349;BME280;5729;43.570;27.826;2023-04-22T03:16:24;98841.81;;;8.95;100.00
11349;BME280;5729;43.570;27.826;2023-04-22T03:18:49;98831.97;;;8.84;100.00
11349;BME280;5729;43.570;27.826;2023-04-22T03:21:15;98829.81;;;8.73;100.00
11349;BME280;5729;43.570;27.826;2023-04-22T03:23:40;98849.84;;;8.76;100.00
11349;BME280;5729;43.570;27.826;2023-04-22T03:26:06;98837.63;;;8.79;100.00
11349;BME280;5729;43.570;27.826;2023-04-22T03:28:31;98832.25;;;8.79;100.00
11349;BME280;5729;43.570;27.826;2023-04-22T03:30:57;98843.16;;;8.86;100.00
11349;BME280;5729;43.570;27.826;2023-04-22T03:33:22;98837.44;;;8.87;100.00
11349;BME280;5729;43.570;27.826;2023-04-22T03:35:48;98849.31;;;8.86;100.00
11349;BME280;5729;43.570;27.826;2023-04-22T03:38:14;98839.25;;;8.83;100.00
11349;BME280;5729;43.570;27.826;2023-04-22T03:40:41;98850.88;;;8.87;100.00
11349;BME280;5729;43.570;27.826;2023-04-22T03:43:06;98863.19;;;8.88;100.00
11349;BME280;5729;43.570;27.826;2023-04-22T03:45:32;98858.94;;;8.87;100.00
11349;BME280;5729;43.570;27.826;2023-04-22T03:47:57;98861.53;;;8.84;100.00
11349;BME280;5729;43.570;27.826;2023-04-22T03:50:23;98865.34;;;8.83;100.00
11349;BME280;5729;43.570;27.826;2023-04-22T03:52:49;98870.41;;;8.68;100.00
11349;BME280;5729;43.570;27.826;2023-04-22T03:55:15;98876.38;;;8.78;100.00
11349;BME280;5729;43.570;27.826;2023-04-22T03:57:40;98881.13;;;8.84;100.00
11349;BME280;5729;43.570;27.826;2023-04-22T04:00:06;98882.25;;;8.83;100.00
11349;BME280;5729;43.570;27.826;2023-04-22T04:02:32;98889.28;;;8.88;100.00
11349;BME280;5729;43.570;27.826;2023-04-22T04:04:57;98884.69;;;8.88;100.00
11349;BME280;5729;43.570;27.826;2023-04-22T04:07:22;98894.09;;;8.98;100.00
11349;BME280;5729;43.570;27.826;2023-04-22T04:09:48;98893.81;;;9.03;100.00
11349;BME280;5729;43.570;27.826;2023-04-22T04:12:13;98901.00;;;9.15;100.00
11349;BME280;5729;43.570;27.826;2023-04-22T04:14:39;98902.72;;;9.23;100.00
11349;BME280;5729;43.570;27.826;2023-04-22T04:17:04;98914.31;;;9.27;100.00
11349;BME280;5729;43.570;27.826;2023-04-22T04:19:34;98910.84;;;9.26;100.00
11349;BME280;5729;43.570;27.826;2023-04-22T04:22:00;98899.69;;;9.24;100.00
11349;BME280;5729;43.570;27.826;2023-04-22T04:24:25;98925.59;;;9.32;100.00
11349;BME280;5729;43.570;27.826;2023-04-22T04:26:52;98935.59;;;9.32;100.00
11349;BME280;5729;43.570;27.826;2023-04-22T04:29:18;98936.63;;;9.27;100.00
11349;BME280;5729;43.570;27.826;2023-04-22T04:31:48;98941.31;;;9.30;100.00
11349;BME280;5729;43.570;27.826;2023-04-22T04:34:13;98945.00;;;9.41;100.00
11349;BME280;5729;43.570;27.826;2023-04-22T04:36:39;98945.16;;;9.48;100.00
11349;BME280;5729;43.570;27.826;2023-04-22T04:39:05;98938.34;;;9.35;100.00
11349;BME280;5729;43.570;27.826;2023-04-22T04:41:32;98950.69;;;9.56;100.00
11349;BME280;5729;43.570;27.826;2023-04-22T04:43:58;98955.38;;;9.59;100.00
11349;BME280;5729;43.570;27.826;2023-04-22T04:46:26;98954.53;;;9.55;100.00
11349;BME280;5729;43.570;27.826;2023-04-22T04:48:56;98962.03;;;9.45;100.00
11349;BME280;5729;43.570;27.826;2023-04-22T04:51:23;98957.66;;;9.57;100.00
11349;BME280;5729;43.570;27.826;2023-04-22T04:53:48;98962.25;;;9.56;100.00
11349;BME280;5729;43.570;27.826;2023-04-22T04:56:14;98971.69;;;9.66;100.00
11349;BME280;5729;43.570;27.826;2023-04-22T04:58:39;98970.03;;;9.61;100.00
11349;BME280;5729;43.570;27.826;2023-04-22T05:01:05;98964.38;;;9.66;100.00
11349;BME280;5729;43.570;27.826;2023-04-22T05:03:30;98971.34;;;9.52;100.00
11349;BME280;5729;43.570;27.826;2023-04-22T05:05:56;98970.75;;;9.58;100.00
11349;BME280;5729;43.570;27.826;2023-04-22T05:08:21;98965.06;;;9.63;100.00
11349;BME280;5729;43.570;27.826;2023-04-22T05:10:47;98964.38;;;9.66;100.00
11349;BME280;5729;43.570;27.826;2023-04-22T05:13:12;98976.50;;;9.76;100.00
11349;BME280;5729;43.570;27.826;2023-04-22T05:15:38;98981.31;;;9.86;100.00
11349;BME280;5729;43.570;27.826;2023-04-22T05:18:04;98974.38;;;9.85;100.00
11349;BME280;5729;43.570;27.826;2023-04-22T05:20:30;98970.41;;;9.98;100.00
11349;BME280;5729;43.570;27.826;2023-04-22T05:22:55;98974.41;;;10.04;100.00
11349;BME280;5729;43.570;27.826;2023-04-22T05:25:21;98977.78;;;10.01;100.00
11349;BME280;5729;43.570;27.826;2023-04-22T05:27:46;98978.34;;;10.10;100.00
11349;BME280;5729;43.570;27.826;2023-04-22T05:30:12;98982.50;;;10.24;100.00
11349;BME280;5729;43.570;27.826;2023-04-22T05:32:37;98972.78;;;10.19;100.00
11349;BME280;5729;43.570;27.826;2023-04-22T05:35:03;98982.69;;;10.34;100.00
11349;BME280;5729;43.570;27.826;2023-04-22T05:37:28;98982.69;;;10.34;100.00
11349;BME280;5729;43.570;27.826;2023-04-22T05:39:54;98989.22;;;10.33;100.00
11349;BME280;5729;43.570;27.826;2023-04-22T05:42:20;98991.88;;;10.52;100.00
11349;BME280;5729;43.570;27.826;2023-04-22T05:44:45;98988.09;;;10.57;100.00
11349;BME280;5729;43.570;27.826;2023-04-22T05:47:11;98996.25;;;10.61;100.00
11349;BME280;5729;43.570;27.826;2023-04-22T05:49:36;99000.50;;;10.62;100.00
11349;BME280;5729;43.570;27.826;2023-04-22T05:52:02;98997.22;;;10.72;100.00
11349;BME280;5729;43.570;27.826;2023-04-22T05:54:27;98995.59;;;10.67;100.00
11349;BME280;5729;43.570;27.826;2023-04-22T05:56:54;98997.09;;;10.65;100.00
11349;BME280;5729;43.570;27.826;2023-04-22T05:59:20;98998.75;;;10.73;100.00
11349;BME280;5729;43.570;27.826;2023-04-22T06:01:45;99011.34;;;10.88;100.00
11349;BME280;5729;43.570;27.826;2023-04-22T06:04:10;98995.97;;;10.88;100.00
11349;BME280;5729;43.570;27.826;2023-04-22T06:06:36;98998.72;;;10.92;100.00
11349;BME280;5729;43.570;27.826;2023-04-22T06:09:02;99012.75;;;11.01;100.00
11349;BME280;5729;43.570;27.826;2023-04-22T06:11:27;99008.97;;;11.06;100.00
11349;BME280;5729;43.570;27.826;2023-04-22T06:13:53;99012.84;;;11.08;100.00
11349;BME280;5729;43.570;27.826;2023-04-22T06:16:18;99017.81;;;11.06;100.00
11349;BME280;5729;43.570;27.826;2023-04-22T06:18:44;99016.75;;;11.11;100.00
11349;BME280;5729;43.570;27.826;2023-04-22T06:21:10;99019.34;;;11.30;100.00
11349;BME280;5729;43.570;27.826;2023-04-22T06:23:36;99018.63;;;11.33;100.00
11349;BME280;5729;43.570;27.826;2023-04-22T06:26:01;99026.84;;;11.40;100.00
11349;BME280;5729;43.570;27.826;2023-04-22T06:28:27;99028.94;;;11.50;100.00
11349;BME280;5729;43.570;27.826;2023-04-22T06:30:52;99032.56;;;11.61;100.00
11349;BME280;5729;43.570;27.826;2023-04-22T06:33:18;99035.63;;;11.60;100.00
11349;BME280;5729;43.570;27.826;2023-04-22T06:35:43;99038.88;;;11.46;100.00
11349;BME280;5729;43.570;27.826;2023-04-22T06:38:09;99035.16;;;11.54;100.00
11349;BME280;5729;43.570;27.826;2023-04-22T06:40:35;99045.16;;;11.54;100.00
11349;BME280;5729;43.570;27.826;2023-04-22T06:43:00;99056.03;;;11.57;100.00
11349;BME280;5729;43.570;27.826;2023-04-22T06:45:25;99053.84;;;11.67;100.00
11349;BME280;5729;43.570;27.826;2023-04-22T06:47:51;99055.88;;;11.73;100.00
11349;BME280;5729;43.570;27.826;2023-04-22T06:50:18;99054.03;;;11.77;100.00
11349;BME280;5729;43.570;27.826;2023-04-22T06:52:43;99054.38;;;11.76;100.00
11349;BME280;5729;43.570;27.826;2023-04-22T06:55:09;99056.72;;;11.77;100.00
11349;BME280;5729;43.570;27.826;2023-04-22T06:57:35;99052.34;;;11.69;100.00
11349;BME280;5729;43.570;27.826;2023-04-22T07:00:00;99059.38;;;11.74;100.00
11349;BME280;5729;43.570;27.826;2023-04-22T07:02:26;99056.84;;;11.84;100.00
11349;BME280;5729;43.570;27.826;2023-04-22T07:04:51;99055.72;;;11.89;100.00
11349;BME280;5729;43.570;27.826;2023-04-22T07:07:17;99065.81;;;11.92;100.00
11349;BME280;5729;43.570;27.826;2023-04-22T07:09:43;99063.53;;;11.94;100.00
11349;BME280;5729;43.570;27.826;2023-04-22T07:12:08;99060.50;;;11.99;100.00
11349;BME280;5729;43.570;27.826;2023-04-22T07:14:33;99063.38;;;12.13;100.00
11349;BME280;5729;43.570;27.826;2023-04-22T07:16:59;99072.06;;;11.96;100.00
11349;BME280;5729;43.570;27.826;2023-04-22T07:19:24;99063.75;;;12.12;100.00
11349;BME280;5729;43.570;27.826;2023-04-22T07:21:50;99054.22;;;12.21;100.00
11349;BME280;5729;43.570;27.826;2023-04-22T07:24:16;99057.47;;;12.34;100.00
11349;BME280;5729;43.570;27.826;2023-04-22T07:26:42;99052.53;;;12.40;100.00
11349;BME280;5729;43.570;27.826;2023-04-22T07:29:08;99063.66;;;12.34;100.00
11349;BME280;5729;43.570;27.826;2023-04-22T07:31:36;99058.00;;;12.47;100.00
11349;BME280;5729;43.570;27.826;2023-04-22T07:34:02;99057.81;;;12.62;100.00
11349;BME280;5729;43.570;27.826;2023-04-22T07:36:27;99057.19;;;12.80;100.00
11349;BME280;5729;43.570;27.826;2023-04-22T07:38:53;99069.25;;;12.86;100.00
11349;BME280;5729;43.570;27.826;2023-04-22T07:41:18;99056.66;;;13.04;100.00
11349;BME280;5729;43.570;27.826;2023-04-22T07:43:44;99063.53;;;13.35;100.00
11349;BME280;5729;43.570;27.826;2023-04-22T07:46:09;99066.97;;;13.32;100.00
11349;BME280;5729;43.570;27.826;2023-04-22T07:48:34;99064.38;;;13.46;100.00
11349;BME280;5729;43.570;27.826;2023-04-22T07:51:01;99069.63;;;13.25;100.00
11349;BME280;5729;43.570;27.826;2023-04-22T07:53:26;99077.56;;;13.48;100.00
11349;BME280;5729;43.570;27.826;2023-04-22T07:55:51;99075.34;;;13.64;100.00
11349;BME280;5729;43.570;27.826;2023-04-22T07:58:17;99073.78;;;13.59;100.00
11349;BME280;5729;43.570;27.826;2023-04-22T08:00:42;99069.31;;;13.85;100.00
11349;BME280;5729;43.570;27.826;2023-04-22T08:03:08;99073.63;;;14.00;100.00
11349;BME280;5729;43.570;27.826;2023-04-22T08:05:33;99064.06;;;14.24;100.00
11349;BME280;5729;43.570;27.826;2023-04-22T08:07:59;99064.19;;;14.41;100.00
11349;BME280;5729;43.570;27.826;2023-04-22T08:10:24;99066.59;;;14.71;100.00
11349;BME280;5729;43.570;27.826;2023-04-22T08:12:50;99064.31;;;14.91;100.00
11349;BME280;5729;43.570;27.826;2023-04-22T08:15:15;99066.69;;;15.10;100.00
11349;BME280;5729;43.570;27.826;2023-04-22T08:17:41;99063.19;;;15.24;100.00
11349;BME280;5729;43.570;27.826;2023-04-22T08:20:07;99066.69;;;15.17;100.00
11349;BME280;5729;43.570;27.826;2023-04-22T08:22:33;99076.38;;;15.54;100.00
11349;BME280;5729;43.570;27.826;2023-04-22T08:24:59;99065.09;;;18.23;100.00
11349;BME280;5729;43.570;27.826;2023-04-22T08:27:24;99067.50;;;22.23;61.80
11349;BME280;5729;43.570;27.826;2023-04-22T08:29:50;99066.88;;;25.20;46.72
11349;BME280;5729;43.570;27.826;2023-04-22T08:32:15;99053.53;;;27.16;38.33
11349;BME280;5729;43.570;27.826;2023-04-22T08:34:43;99053.22;;;29.18;34.81
11349;BME280;5729;43.570;27.826;2023-04-22T08:37:09;99052.63;;;30.36;32.98
11349;BME280;5729;43.570;27.826;2023-04-22T08:39:34;99052.97;;;31.54;29.97
11349;BME280;5729;43.570;27.826;2023-04-22T08:42:00;99051.22;;;30.77;29.88
11349;BME280;5729;43.570;27.826;2023-04-22T08:44:26;99062.28;;;29.33;32.30
11349;BME280;5729;43.570;27.826;2023-04-22T08:46:53;99054.97;;;27.83;33.66
11349;BME280;5729;43.570;27.826;2023-04-22T08:49:22;99052.59;;;25.89;35.07
11349;BME280;5729;43.570;27.826;2023-04-22T08:51:48;99054.53;;;25.43;36.96
11349;BME280;5729;43.570;27.826;2023-04-22T08:54:14;99053.09;;;28.04;34.35
11349;BME280;5729;43.570;27.826;2023-04-22T08:56:42;99042.25;;;31.36;30.69
11349;BME280;5729;43.570;27.826;2023-04-22T08:59:12;99041.50;;;33.29;27.68
11349;BME280;5729;43.570;27.826;2023-04-22T09:01:39;99052.78;;;34.16;25.83
11349;BME280;5729;43.570;27.826;2023-04-22T09:04:05;99048.38;;;36.02;24.40
11349;BME280;5729;43.570;27.826;2023-04-22T09:06:32;99044.56;;;35.44;24.07
11349;BME280;5729;43.570;27.826;2023-04-22T09:08:58;99052.75;;;32.95;25.83
11349;BME280;5729;43.570;27.826;2023-04-22T09:11:28;99054.88;;;28.31;30.27
11349;BME280;5729;43.570;27.826;2023-04-22T09:13:54;99049.53;;;29.06;31.34
11349;BME280;5729;43.570;27.826;2023-04-22T09:16:19;99047.28;;;30.95;29.87
11349;BME280;5729;43.570;27.826;2023-04-22T09:18:45;99043.34;;;31.55;28.33
11349;BME280;5729;43.570;27.826;2023-04-22T09:21:10;99048.16;;;28.81;31.45
11349;BME280;5729;43.570;27.826;2023-04-22T09:23:51;99044.88;;;31.62;28.87
11349;BME280;5729;43.570;27.826;2023-04-22T09:26:20;99057.66;;;33.58;25.75
11349;BME280;5729;43.570;27.826;2023-04-22T09:28:52;99045.00;;;33.98;25.87
11349;BME280;5729;43.570;27.826;2023-04-22T09:31:17;99045.53;;;33.39;26.10
11349;BME280;5729;43.570;27.826;2023-04-22T09:34:03;99039.00;;;33.83;25.09
11349;BME280;5729;43.570;27.826;2023-04-22T09:36:30;99044.81;;;30.40;28.21
11349;BME280;5729;43.570;27.826;2023-04-22T09:39:03;99050.47;;;27.14;32.96
11349;BME280;5729;43.570;27.826;2023-04-22T09:41:34;99047.72;;;27.86;32.78
11349;BME280;5729;43.570;27.826;2023-04-22T09:44:02;99056.75;;;28.83;31.87
11349;BME280;5729;43.570;27.826;2023-04-22T09:46:29;99050.44;;;28.98;30.88
11349;BME280;5729;43.570;27.826;2023-04-22T09:48:56;99053.34;;;30.56;29.25
11349;BME280;5729;43.570;27.826;2023-04-22T09:51:23;99054.13;;;30.62;29.58
11349;BME280;5729;43.570;27.826;2023-04-22T09:54:05;99056.22;;;29.35;29.76
11349;BME280;5729;43.570;27.826;2023-04-22T09:56:48;99052.66;;;27.81;31.98
11349;BME280;5729;43.570;27.826;2023-04-22T09:59:24;99055.47;;;25.49;35.80
11349;BME280;5729;43.570;27.826;2023-04-22T10:01:53;99052.22;;;25.42;36.98
11349;BME280;5729;43.570;27.826;2023-04-22T10:04:19;99053.22;;;25.84;37.23
11349;BME280;5729;43.570;27.826;2023-04-22T10:06:49;99050.25;;;26.43;34.18
11349;BME280;5729;43.570;27.826;2023-04-22T10:09:19;99044.78;;;26.06;37.08
11349;BME280;5729;43.570;27.826;2023-04-22T10:11:46;99047.53;;;26.15;35.64
11349;BME280;5729;43.570;27.826;2023-04-22T10:14:12;99043.34;;;26.47;36.25
11349;BME280;5729;43.570;27.826;2023-04-22T10:16:42;99057.94;;;25.07;38.33
11349;BME280;5729;43.570;27.826;2023-04-22T10:19:11;99043.31;;;23.70;41.82
11349;BME280;5729;43.570;27.826;2023-04-22T10:21:40;99047.25;;;24.78;41.50
11349;BME280;5729;43.570;27.826;2023-04-22T10:24:16;99043.72;;;25.94;38.60
11349;BME280;5729;43.570;27.826;2023-04-22T10:29:15;99041.44;;;28.14;35.37
11349;BME280;5729;43.570;27.826;2023-04-22T10:31:43;99043.38;;;28.38;33.92
11349;BME280;5729;43.570;27.826;2023-04-22T10:34:13;99044.00;;;26.15;36.47
11349;BME280;5729;43.570;27.826;2023-04-22T10:39:24;99047.41;;;26.70;37.42
11349;BME280;5729;43.570;27.826;2023-04-22T10:41:51;99047.97;;;26.32;36.90
11349;BME280;5729;43.570;27.826;2023-04-22T10:44:19;99037.44;;;24.77;38.60
11349;BME280;5729;43.570;27.826;2023-04-22T10:49:22;99047.38;;;22.68;47.19
11349;BME280;5729;43.570;27.826;2023-04-22T10:51:57;99032.56;;;22.78;46.01
11349;BME280;5729;43.570;27.826;2023-04-22T10:57:06;99062.00;;;20.81;56.80
11349;BME280;5729;43.570;27.826;2023-04-22T10:59:55;99061.91;;;20.48;63.01
11349;BME280;5729;43.570;27.826;2023-04-22T11:02:20;99061.66;;;20.43;66.28
11349;BME280;5729;43.570;27.826;2023-04-22T11:04:46;99053.53;;;20.75;61.27
11349;BME280;5729;43.570;27.826;2023-04-22T11:10:00;99064.81;;;20.77;59.59
11349;BME280;5729;43.570;27.826;2023-04-22T11:15:09;99054.22;;;21.77;57.57
11349;BME280;5729;43.570;27.826;2023-04-22T11:17:36;99049.88;;;21.47;55.73
11349;BME280;5729;43.570;27.826;2023-04-22T11:20:03;99059.06;;;21.40;54.20
11349;BME280;5729;43.570;27.826;2023-04-22T11:22:34;99061.13;;;21.36;52.85
11349;BME280;5729;43.570;27.826;2023-04-22T11:25:01;99056.41;;;21.98;54.01
11349;BME280;5729;43.570;27.826;2023-04-22T11:27:28;99043.16;;;23.52;48.54
11349;BME280;5729;43.570;27.826;2023-04-22T11:32:39;99052.81;;;21.85;50.44
11349;BME280;5729;43.570;27.826;2023-04-22T11:35:07;99055.75;;;22.23;52.41
11349;BME280;5729;43.570;27.826;2023-04-22T11:37:59;99053.59;;;24.13;47.53
11349;BME280;5729;43.570;27.826;2023-04-22T11:40:36;99051.97;;;25.00;43.29
11349;BME280;5729;43.570;27.826;2023-04-22T11:43:03;99063.97;;;24.84;42.21
11349;BME280;5729;43.570;27.826;2023-04-22T11:45:30;99049.97;;;25.67;42.36
11349;BME280;5729;43.570;27.826;2023-04-22T11:47:57;99061.50;;;24.77;43.17
11349;BME280;5729;43.570;27.826;2023-04-22T11:50:27;99059.00;;;23.35;44.31
11349;BME280;5729;43.570;27.826;2023-04-22T11:52:54;99063.81;;;22.14;49.07
11349;BME280;5729;43.570;27.826;2023-04-22T11:55:22;99063.09;;;21.52;51.76
11349;BME280;5729;43.570;27.826;2023-04-22T11:57:54;99065.53;;;21.14;51.42
11349;BME280;5729;43.570;27.826;2023-04-22T12:00:21;99066.09;;;20.89;59.17
11349;BME280;5729;43.570;27.826;2023-04-22T12:03:04;99065.88;;;20.99;57.32
11349;BME280;5729;43.570;27.826;2023-04-22T12:05:45;99066.09;;;20.89;60.24
11349;BME280;5729;43.570;27.826;2023-04-22T12:08:12;99055.72;;;20.64;58.81
11349;BME280;5729;43.570;27.826;2023-04-22T12:10:39;99057.81;;;20.76;64.95
11349;BME280;5729;43.570;27.826;2023-04-22T12:13:06;99058.84;;;19.64;70.50
11349;BME280;5729;43.570;27.826;2023-04-22T12:15:38;99054.38;;;20.13;73.88
11349;BME280;5729;43.570;27.826;2023-04-22T12:18:03;99065.41;;;20.49;66.25
11349;BME280;5729;43.570;27.826;2023-04-22T12:20:35;99053.72;;;21.17;65.42
11349;BME280;5729;43.570;27.826;2023-04-22T12:23:02;99048.81;;;20.92;64.28
11349;BME280;5729;43.570;27.826;2023-04-22T12:25:28;99066.88;;;20.89;66.47
11349;BME280;5729;43.570;27.826;2023-04-22T12:27:54;99050.00;;;20.75;70.37
11349;BME280;5729;43.570;27.826;2023-04-22T12:30:21;99046.88;;;21.57;64.06
11349;BME280;5729;43.570;27.826;2023-04-22T12:32:47;99051.09;;;20.61;61.15
11349;BME280;5729;43.570;27.826;2023-04-22T12:35:13;99055.78;;;20.60;68.63
11349;BME280;5729;43.570;27.826;2023-04-22T12:37:38;99050.59;;;20.46;67.69
11349;BME280;5729;43.570;27.826;2023-04-22T12:40:04;99045.84;;;20.86;64.27
11349;BME280;5729;43.570;27.826;2023-04-22T12:42:31;99041.72;;;21.59;59.46
11349;BME280;5729;43.570;27.826;2023-04-22T12:44:56;99022.13;;;22.19;52.27
11349;BME280;5729;43.570;27.826;2023-04-22T12:47:21;99042.09;;;22.73;49.82
11349;BME280;5729;43.570;27.826;2023-04-22T12:49:47;99043.19;;;21.93;51.09
11349;BME280;5729;43.570;27.826;2023-04-22T12:52:13;99038.16;;;20.61;54.88
11349;BME280;5729;43.570;27.826;2023-04-22T12:54:38;99039.44;;;21.09;57.50
11349;BME280;5729;43.570;27.826;2023-04-22T12:57:04;99027.59;;;21.90;52.64
11349;BME280;5729;43.570;27.826;2023-04-22T12:59:29;99026.13;;;21.56;56.14
11349;BME280;5729;43.570;27.826;2023-04-22T13:01:55;99035.19;;;21.69;54.82
11349;BME280;5729;43.570;27.826;2023-04-22T13:04:21;99035.38;;;21.62;55.83
11349;BME280;5729;43.570;27.826;2023-04-22T13:06:47;99032.22;;;21.64;53.97
11349;BME280;5729;43.570;27.826;2023-04-22T13:09:15;99030.81;;;21.43;56.09
11349;BME280;5729;43.570;27.826;2023-04-22T13:11:40;99026.09;;;21.44;55.91
11349;BME280;5729;43.570;27.826;2023-04-22T13:14:06;99025.31;;;21.88;55.03